Time;durP1;ratioP1;P1;durP2;ratioP2;P2;SDS_P1;SDS_P2;PMS_P1;PMS_P2;Temp;Humidity;BMP_temperature;BMP_pressure;BME280_temperature;BME280_humidity;BME280_pressure;Samples;Min_cycle;Max_cycle;Signal;HPM_P1;HPM_P2
2022/03/10 00:26:25;;;;;;;17.93;10.57;;;;;;;0.46;79.98;94982.47;5096610;28;20223;-81
2022/03/10 00:28:51;;;;;;;20.27;10.90;;;;;;;0.27;79.33;94958.31;5113221;28;20173;-81
2022/03/10 00:31:16;;;;;;;28.77;12.37;;;;;;;0.56;79.13;95002.16;5111872;28;20657;-81
2022/03/10 00:33:42;;;;;;;26.77;13.30;;;;;;;0.35;79.59;94966.16;5113097;28;20263;-81
2022/03/10 00:36:07;;;;;;;27.07;12.90;;;;;;;0.37;79.51;94976.38;5113418;28;20214;-81
2022/03/10 00:38:33;;;;;;;26.63;12.87;;;;;;;0.49;79.63;95002.91;5113188;28;20644;-81
2022/03/10 00:40:59;;;;;;;25.33;12.63;;;;;;;0.51;79.26;94999.22;5113035;28;20168;-80
2022/03/10 00:43:26;;;;;;;25.80;12.03;;;;;;;0.36;79.65;94972.97;5113351;28;20160;-80
2022/03/10 00:45:51;;;;;;;27.73;12.30;;;;;;;0.26;79.05;94943.75;5112963;28;20180;-80
2022/03/10 00:48:17;;;;;;;22.67;12.40;;;;;;;0.52;79.68;94981.91;5112950;28;20672;-80
2022/03/10 00:50:42;;;;;;;23.30;12.47;;;;;;;0.54;79.57;94996.31;5103306;28;20216;-80
2022/03/10 00:53:08;;;;;;;29.23;13.87;;;;;;;0.49;78.87;94993.34;5100541;28;20196;-80
2022/03/10 00:55:33;;;;;;;23.17;12.47;;;;;;;0.44;79.41;94982.59;5101632;28;20169;-80
2022/03/10 00:57:59;;;;;;;20.97;11.73;;;;;;;0.26;79.75;94953.31;5099850;28;20661;-80
2022/03/10 01:00:28;;;;;;;25.17;11.47;;;;;;;0.28;79.19;94949.59;5092361;28;20174;-80
2022/03/10 01:02:55;;;;;;;24.00;12.10;;;;;;;0.17;79.25;94931.72;5092316;28;20647;-80
2022/03/10 01:05:22;;;;;;;24.80;12.27;;;;;;;0.35;78.56;94965.34;5092537;28;20184;-80
2022/03/10 01:07:47;;;;;;;19.50;10.53;;;;;;;0.46;78.60;94985.06;5092898;28;20162;-80
2022/03/10 01:10:14;;;;;;;19.93;11.73;;;;;;;0.43;79.36;94978.41;5092513;28;20658;-80
2022/03/10 01:12:42;;;;;;;23.50;12.60;;;;;;;0.36;79.38;94975.56;5092576;28;20178;-80
2022/03/10 01:15:11;;;;;;;23.60;11.90;;;;;;;0.41;78.79;94975.16;5104470;28;20162;-81
2022/03/10 01:17:37;;;;;;;24.70;13.73;;;;;;;0.30;79.04;94963.22;5101436;28;20205;-81
2022/03/10 01:20:04;;;;;;;25.90;12.17;;;;;;;0.11;78.51;94931.44;5100092;28;20265;-81
2022/03/10 01:22:29;;;;;;;24.97;13.10;;;;;;;0.32;78.57;94963.88;5097713;28;20212;-80
2022/03/10 01:24:55;;;;;;;23.83;12.00;;;;;;;0.42;78.10;94981.13;5092378;28;20162;-80
2022/03/10 01:27:20;;;;;;;25.73;12.63;;;;;;;0.36;78.69;94972.97;5093255;28;20658;-80
2022/03/10 01:29:46;;;;;;;22.70;11.87;;;;;;;0.40;78.57;94973.50;5105986;28;20201;-80
2022/03/10 01:32:12;;;;;;;25.37;12.47;;;;;;;0.35;78.45;94981.69;5100266;28;20169;-80
2022/03/10 01:34:37;;;;;;;24.93;11.90;;;;;;;0.15;79.03;94946.56;5104153;28;20184;-80
2022/03/10 01:37:03;;;;;;;19.40;11.50;;;;;;;0.28;78.88;94957.38;5110637;28;20169;-80
2022/03/10 01:39:32;;;;;;;27.13;13.23;;;;;;;0.33;78.95;94975.06;5116588;28;20164;-80
2022/03/10 01:41:59;;;;;;;25.57;11.30;;;;;;;0.25;79.04;94960.25;5115605;28;20507;-80
2022/03/10 01:44:24;;;;;;;27.53;12.23;;;;;;;0.31;79.21;94972.63;5104533;28;20180;-80
2022/03/10 01:46:50;;;;;;;24.70;12.73;;;;;;;-0.10;78.58;94919.59;5106366;28;20173;-80
2022/03/10 01:49:16;;;;;;;23.47;12.07;;;;;;;0.27;78.45;94978.22;5103892;28;20188;-80
2022/03/10 01:51:43;;;;;;;28.83;11.63;;;;;;;0.09;78.62;94959.28;5110953;28;20174;-80
2022/03/10 01:54:08;;;;;;;21.80;12.00;;;;;;;-0.23;79.73;94955.31;5116229;28;20157;-80
2022/03/10 01:56:35;;;;;;;24.87;12.63;;;;;;;-0.16;80.14;94971.06;5116227;28;20177;-80
2022/03/10 01:59:02;;;;;;;24.87;12.73;;;;;;;-0.17;80.17;94959.09;5116063;28;20186;-80
2022/03/10 02:01:28;;;;;;;24.20;12.83;;;;;;;-0.31;80.18;94924.19;5116034;28;20160;-81
2022/03/10 02:03:56;;;;;;;25.80;14.40;;;;;;;-0.18;79.87;94947.16;5104407;28;20181;-80
2022/03/10 02:06:22;;;;;;;28.10;14.70;;;;;;;-0.02;79.60;94973.19;5107189;28;20177;-80
2022/03/10 02:11:31;;;;;;;27.47;14.00;;;;;;;-0.26;79.14;94934.13;5100453;28;20295;-80
2022/03/10 02:13:57;;;;;;;29.27;14.30;;;;;;;-0.07;79.32;94960.69;5102736;28;20208;-80
2022/03/10 02:19:06;;;;;;;30.70;14.00;;;;;;;-0.06;79.27;94944.22;5116361;28;20196;-80
2022/03/10 02:21:32;;;;;;;29.37;15.37;;;;;;;-0.26;78.42;94921.19;5115641;28;20169;-80
2022/03/10 02:23:57;;;;;;;26.63;14.23;;;;;;;0.02;79.19;94964.19;5104149;28;20253;-80
2022/03/10 02:26:23;;;;;;;24.37;14.20;;;;;;;-0.05;79.44;94956.19;5103237;28;20217;-80
2022/03/10 02:28:49;;;;;;;25.23;13.57;;;;;;;-0.16;78.25;94937.44;5105295;28;20635;-80
2022/03/10 02:31:15;;;;;;;29.97;15.60;;;;;;;0.07;77.95;94977.53;5110683;28;20589;-80
2022/03/10 02:33:40;;;;;;;33.13;15.47;;;;;;;-0.04;78.86;94973.34;5115772;28;20161;-80
2022/03/10 02:36:06;;;;;;;35.67;15.70;;;;;;;0.06;78.27;94986.25;5115681;28;20250;-80
2022/03/10 02:38:32;;;;;;;37.00;16.77;;;;;;;-0.03;78.61;94976.75;5115643;28;20173;-80
2022/03/10 02:40:58;;;;;;;37.43;17.33;;;;;;;-0.49;78.91;94906.03;5115261;27;20188;-81
2022/03/10 02:43:24;;;;;;;39.87;18.03;;;;;;;-0.22;78.74;94946.59;5115813;28;20161;-81
2022/03/10 02:45:50;;;;;;;43.83;18.90;;;;;;;-0.07;78.46;94967.63;5113995;28;21045;-80
2022/03/10 02:48:16;;;;;;;56.07;21.60;;;;;;;0.00;79.36;94982.44;5115590;28;20205;-80
2022/03/10 02:50:43;;;;;;;50.87;20.53;;;;;;;0.03;79.26;94990.88;5114573;28;20658;-80
2022/03/10 02:53:10;;;;;;;41.40;20.40;;;;;;;0.02;79.86;94994.41;5100120;28;20179;-80
2022/03/10 02:55:37;;;;;;;49.73;21.67;;;;;;;0.02;79.21;94984.88;5105558;28;20169;-80
2022/03/10 02:58:03;;;;;;;41.57;19.27;;;;;;;-0.01;79.03;94990.38;5106217;28;20169;-81
2022/03/10 03:00:29;;;;;;;40.07;17.57;;;;;;;-0.03;79.56;94971.56;5111353;28;20189;-81
2022/03/10 03:02:54;;;;;;;27.23;13.80;;;;;;;-0.30;79.64;94936.16;5114653;28;20187;-81
2022/03/10 03:05:20;;;;;;;24.70;12.50;;;;;;;-0.05;80.32;94981.25;5115131;28;20186;-81
2022/03/10 03:07:45;;;;;;;21.03;11.70;;;;;;;0.05;79.48;95000.13;5114762;28;20169;-81
2022/03/10 03:10:12;;;;;;;18.80;10.57;;;;;;;0.02;79.19;94997.81;5114685;28;20219;-81
2022/03/10 03:12:46;;;;;;;20.47;10.37;;;;;;;-0.07;79.98;94993.50;5114704;28;20226;-81
2022/03/10 03:15:12;;;;;;;18.83;10.10;;;;;;;-0.13;78.31;94965.63;5115040;28;20157;-80
2022/03/10 03:17:37;;;;;;;16.20;8.93;;;;;;;-0.11;77.68;95002.50;5114614;28;20626;-81
2022/03/10 03:20:04;;;;;;;18.97;9.33;;;;;;;-0.14;77.64;94989.84;5102177;28;20161;-80
2022/03/10 03:22:31;;;;;;;13.70;7.30;;;;;;;-0.46;75.05;94956.63;5099706;28;20679;-80
2022/03/10 03:24:56;;;;;;;13.83;7.27;;;;;;;-0.33;72.34;95008.00;5103495;28;20630;-80
2022/03/10 03:27:22;;;;;;;14.37;7.10;;;;;;;-0.39;69.84;95002.47;5101504;28;20213;-80
2022/03/10 03:29:47;;;;;;;11.80;6.53;;;;;;;-0.71;68.64;94962.44;5093902;28;20197;-80
2022/03/10 03:32:13;;;;;;;11.30;7.20;;;;;;;-0.58;67.76;94991.34;5094192;28;20210;-80
2022/03/10 03:34:39;;;;;;;12.97;6.93;;;;;;;-0.69;67.33;94981.19;5105342;28;20173;-80
2022/03/10 03:37:04;;;;;;;10.77;5.87;;;;;;;-0.56;66.29;95023.88;5105978;28;20196;-80
2022/03/10 03:39:30;;;;;;;10.60;6.33;;;;;;;-0.90;66.21;95002.03;5103231;28;20223;-80
2022/03/10 03:41:56;;;;;;;10.93;5.63;;;;;;;-1.03;65.97;94986.78;5098217;28;20653;-80
2022/03/10 03:44:21;;;;;;;11.97;5.80;;;;;;;-1.27;65.64;94951.06;5093455;28;20668;-80
2022/03/10 03:46:47;;;;;;;8.97;5.37;;;;;;;-1.07;65.53;94987.22;5093912;28;20241;-80
2022/03/10 03:49:12;;;;;;;8.60;5.27;;;;;;;-1.06;64.99;94997.41;5093870;28;20165;-80
2022/03/10 03:51:38;;;;;;;8.43;5.37;;;;;;;-0.97;65.27;95016.44;5093843;28;20248;-80
2022/03/10 03:54:05;;;;;;;10.97;6.20;;;;;;;-0.97;65.01;95022.44;5093686;28;20162;-80
2022/03/10 03:56:31;;;;;;;8.00;5.00;;;;;;;-1.14;64.05;95007.63;5093134;28;20181;-80
2022/03/10 03:58:56;;;;;;;7.73;4.73;;;;;;;-0.95;64.35;95042.97;5093729;28;20158;-80
2022/03/10 04:01:23;;;;;;;8.30;5.13;;;;;;;-1.35;63.22;94997.41;5093567;28;20196;-80
2022/03/10 04:03:48;;;;;;;7.37;4.43;;;;;;;-1.13;63.64;95044.59;5098692;28;20157;-80
2022/03/10 04:06:16;;;;;;;7.57;4.70;;;;;;;-1.34;63.82;95024.84;5099387;28;20173;-80
2022/03/10 04:08:41;;;;;;;12.17;5.73;;;;;;;-1.45;63.89;95050.78;5100508;28;20161;-80
2022/03/10 04:11:07;;;;;;;9.00;4.47;;;;;;;-1.42;65.45;95049.69;5096925;28;20197;-80
2022/03/10 04:13:32;;;;;;;10.57;5.27;;;;;;;-1.36;64.67;95047.41;5093443;28;20675;-80
2022/03/10 04:15:58;;;;;;;7.27;4.57;;;;;;;-1.47;64.61;95031.22;5093379;28;20207;-83
2022/03/10 04:18:23;;;;;;;7.57;4.13;;;;;;;-1.26;64.71;95048.22;5096373;28;20252;-81
2022/03/10 04:20:49;;;;;;;9.13;5.40;;;;;;;-1.50;64.32;95003.09;5101070;28;20200;-81
2022/03/10 04:23:15;;;;;;;10.23;4.97;;;;;;;-1.19;63.46;95040.75;5102464;27;20239;-81
2022/03/10 04:25:41;;;;;;;7.53;4.90;;;;;;;-1.41;63.98;95021.19;5102342;28;20230;-81
2022/03/10 04:28:07;;;;;;;6.73;4.40;;;;;;;-1.27;63.91;95032.88;5098605;28;20172;-81
2022/03/10 04:30:33;;;;;;;9.03;4.37;;;;;;;-1.13;63.68;95052.31;5093038;28;20193;-81
2022/03/10 04:33:00;;;;;;;8.90;4.93;;;;;;;-1.50;64.24;94992.78;5093354;28;20162;-81
2022/03/10 04:35:26;;;;;;;6.63;4.47;;;;;;;-1.41;63.95;95012.63;5093089;28;20607;-82
2022/03/10 04:37:53;;;;;;;9.37;4.13;;;;;;;-1.15;63.84;95049.88;5092765;28;20548;-81
2022/03/10 04:40:20;;;;;;;7.57;4.57;;;;;;;-1.25;64.15;95033.56;5092595;28;20647;-81
2022/03/10 04:42:45;;;;;;;7.83;4.53;;;;;;;-1.04;63.79;95067.03;5092633;28;20154;-81
2022/03/10 04:45:12;;;;;;;6.83;4.53;;;;;;;-1.24;63.21;95061.00;5092517;28;20166;-81
2022/03/10 04:47:38;;;;;;;6.13;3.60;;;;;;;-1.26;62.91;95068.06;5092578;28;21004;-81
2022/03/10 04:50:05;;;;;;;6.70;3.97;;;;;;;-1.19;62.98;95071.75;5092414;28;20238;-81
2022/03/10 04:52:31;;;;;;;6.47;3.47;;;;;;;-1.54;62.78;95024.00;5092473;28;20169;-81
2022/03/10 04:54:57;;;;;;;8.93;3.90;;;;;;;-1.66;63.76;95009.59;5092511;28;20154;-81
2022/03/10 04:57:22;;;;;;;7.30;4.13;;;;;;;-1.44;63.98;95036.09;5092333;28;20254;-81
2022/03/10 04:59:48;;;;;;;5.93;4.07;;;;;;;-1.09;63.96;95093.22;5092615;28;20638;-81
2022/03/10 05:02:14;;;;;;;7.53;4.37;;;;;;;-1.18;63.59;95074.19;5092481;28;20181;-81
2022/03/10 05:04:40;;;;;;;6.10;3.27;;;;;;;-1.36;62.08;95026.75;5092570;28;20162;-81
2022/03/10 05:07:06;;;;;;;5.00;3.47;;;;;;;-1.11;62.58;95082.22;5092591;28;20615;-81
2022/03/10 05:09:31;;;;;;;6.20;3.80;;;;;;;-1.05;62.77;95092.03;5091470;28;20176;-81
2022/03/10 05:11:56;;;;;;;4.10;3.23;;;;;;;-0.80;62.23;95108.78;5092105;28;20196;-81
2022/03/10 05:14:22;;;;;;;6.03;3.83;;;;;;;-0.43;61.35;95119.22;5092166;28;20162;-81
2022/03/10 05:16:48;;;;;;;5.83;3.80;;;;;;;-0.01;60.24;95101.59;5090789;28;20173;-81
2022/03/10 05:19:13;;;;;;;6.47;3.87;;;;;;;1.05;56.95;95127.00;5092584;28;20157;-81
2022/03/10 05:21:39;;;;;;;6.10;3.93;;;;;;;2.18;53.69;95146.16;5092317;28;20159;-81
2022/03/10 05:24:05;;;;;;;6.13;3.73;;;;;;;2.86;50.62;95142.75;5092484;28;20173;-81
2022/03/10 05:26:31;;;;;;;7.47;4.00;;;;;;;2.85;49.43;95091.78;5092189;28;20236;-81
2022/03/10 05:28:56;;;;;;;6.47;3.73;;;;;;;2.92;48.46;95082.38;5091866;28;20619;-81
2022/03/10 05:31:22;;;;;;;7.13;4.77;;;;;;;4.17;46.70;95169.69;5090413;28;20266;-81
2022/03/10 05:33:47;;;;;;;7.40;4.23;;;;;;;3.52;46.17;95111.59;5092149;28;20169;-81
2022/03/10 05:36:18;;;;;;;7.90;4.30;;;;;;;2.83;47.30;95128.31;5092032;28;20165;-81
2022/03/10 05:38:43;;;;;;;6.57;3.80;;;;;;;2.56;49.48;95170.09;5091892;28;20162;-82
2022/03/10 05:41:09;;;;;;;6.87;3.90;;;;;;;1.88;50.80;95165.56;5093013;28;20169;-81
2022/03/10 05:43:35;;;;;;;8.30;4.77;;;;;;;1.63;51.53;95176.72;5091837;28;20158;-81
2022/03/10 05:46:01;;;;;;;6.43;4.07;;;;;;;1.13;52.33;95143.47;5091820;28;20658;-81
2022/03/10 05:48:27;;;;;;;6.43;4.00;;;;;;;1.05;53.44;95174.47;5090569;28;20173;-80
2022/03/10 05:50:52;;;;;;;7.17;4.00;;;;;;;0.60;53.98;95173.63;5094429;28;20200;-80
2022/03/10 05:53:18;;;;;;;6.47;4.27;;;;;;;0.19;55.23;95099.75;5102632;28;20170;-80
2022/03/10 05:55:43;;;;;;;6.23;3.87;;;;;;;1.67;54.22;95172.84;5101372;28;20597;-80
2022/03/10 05:58:09;;;;;;;7.17;4.10;;;;;;;3.44;48.47;95171.41;5102490;28;20188;-80
2022/03/10 06:00:34;;;;;;;6.20;4.20;;;;;;;5.37;44.11;95176.53;5092087;28;20186;-80
2022/03/10 06:03:00;;;;;;;10.83;4.20;;;;;;;6.29;41.38;95175.63;5092190;28;20228;-81
2022/03/10 06:05:25;;;;;;;8.43;4.50;;;;;;;7.10;39.91;95185.25;5091719;28;20248;-81
2022/03/10 06:07:51;;;;;;;8.80;4.80;;;;;;;7.91;37.98;95126.56;5091647;28;20178;-81
2022/03/10 06:10:16;;;;;;;10.33;5.93;;;;;;;9.80;34.97;95155.19;5091581;28;20186;-81
2022/03/10 06:12:43;;;;;;;7.83;5.13;;;;;;;11.98;32.00;95174.19;5091551;28;20180;-81
2022/03/10 06:15:10;;;;;;;9.67;5.50;;;;;;;12.31;29.25;95174.81;5091819;28;20232;-82
2022/03/10 06:17:36;;;;;;;7.50;5.43;;;;;;;12.72;29.97;95184.03;5091333;28;20178;-81
2022/03/10 06:20:02;;;;;;;9.97;6.53;;;;;;;14.17;28.06;95175.38;5098765;28;20197;-81
2022/03/10 06:22:29;;;;;;;8.63;5.93;;;;;;;15.12;26.55;95172.69;5104605;28;20247;-82
2022/03/10 06:24:55;;;;;;;9.30;5.40;;;;;;;16.67;24.62;95180.59;5104665;28;20179;-81
2022/03/10 06:27:24;;;;;;;8.70;5.67;;;;;;;16.39;23.34;95165.47;5105995;28;20218;-81
2022/03/10 06:29:50;;;;;;;7.53;5.30;;;;;;;17.00;23.06;95177.16;5095010;28;20198;-82
2022/03/10 06:32:21;;;;;;;9.80;5.43;;;;;;;17.95;21.69;95178.75;5095336;28;20158;-81
2022/03/10 06:34:48;;;;;;;7.35;4.88;;;;;;;18.91;20.95;95189.59;5095047;28;20231;-82
2022/03/10 06:37:15;;;;;;;6.65;4.20;;;;;;;19.60;18.77;95193.06;5095112;28;20173;-82
2022/03/10 06:39:41;;;;;;;6.30;4.38;;;;;;;17.84;19.75;95158.34;5095329;28;20158;-82
2022/03/10 06:42:09;;;;;;;4.43;3.90;;;;;;;17.46;19.23;95193.78;5104118;28;20268;-82
2022/03/10 06:44:36;;;;;;;4.82;3.40;;;;;;;17.60;19.45;95174.53;5104064;28;20165;-82
2022/03/10 06:47:03;;;;;;;4.03;2.92;;;;;;;17.53;18.09;95186.44;5106922;28;20642;-82
2022/03/10 06:49:29;;;;;;;2.95;2.63;;;;;;;16.43;18.82;95192.38;5097391;28;20554;-82
2022/03/10 06:51:54;;;;;;;2.80;2.30;;;;;;;15.26;18.49;95191.81;5095160;28;20157;-82
2022/03/10 06:54:20;;;;;;;2.47;2.27;;;;;;;15.08;20.64;95190.09;5095055;28;21092;-82
2022/03/10 06:56:46;;;;;;;2.73;2.40;;;;;;;15.24;18.82;95194.72;5094956;28;20189;-82
2022/03/10 06:59:12;;;;;;;2.57;2.13;;;;;;;15.59;18.42;95204.50;5095053;28;20170;-82
2022/03/10 07:01:38;;;;;;;3.43;2.83;;;;;;;14.45;20.11;95214.53;5094715;28;20174;-82
2022/03/10 07:04:03;;;;;;;3.30;2.80;;;;;;;15.39;19.72;95210.94;5094874;28;20166;-83
2022/03/10 07:06:29;;;;;;;4.40;3.40;;;;;;;15.20;20.19;95204.19;5094520;28;20700;-82
2022/03/10 07:08:54;;;;;;;4.20;3.17;;;;;;;14.53;20.48;95216.84;5094729;28;20165;-82
2022/03/10 07:11:20;;;;;;;3.73;3.00;;;;;;;13.91;20.79;95207.50;5094285;28;20205;-82
2022/03/10 07:13:47;;;;;;;6.03;3.50;;;;;;;13.89;21.85;95226.25;5094592;28;20161;-81
2022/03/10 07:16:13;;;;;;;6.50;4.50;;;;;;;13.85;22.38;95198.59;5093007;28;20185;-81
2022/03/10 07:18:38;;;;;;;3.63;2.83;;;;;;;13.51;21.95;95226.44;5094874;28;20158;-81
2022/03/10 07:21:04;;;;;;;6.03;4.07;;;;;;;13.15;22.68;95176.16;5094125;28;20638;-81
2022/03/10 07:23:33;;;;;;;6.47;3.90;;;;;;;12.47;23.29;95235.00;5094328;28;20654;-81
2022/03/10 07:25:59;;;;;;;4.63;3.37;;;;;;;12.43;24.16;95233.03;5093711;28;20225;-81
2022/03/10 07:28:25;;;;;;;4.83;3.37;;;;;;;12.05;24.39;95227.75;5097092;28;20169;-81
2022/03/10 07:30:51;;;;;;;5.03;3.93;;;;;;;11.77;26.05;95237.78;5102045;28;20190;-81
2022/03/10 07:33:17;;;;;;;5.40;3.93;;;;;;;11.68;24.91;95227.44;5108867;28;20189;-81
2022/03/10 07:35:43;;;;;;;5.07;3.67;;;;;;;11.31;25.44;95207.09;5114582;28;20248;-81
2022/03/10 07:38:10;;;;;;;4.70;3.20;;;;;;;10.84;25.42;95206.34;5114574;28;20196;-81
2022/03/10 07:40:36;;;;;;;3.70;2.93;;;;;;;10.43;25.78;95238.13;5114481;28;20210;-81
2022/03/10 07:43:03;;;;;;;6.10;3.83;;;;;;;9.59;26.87;95247.31;5114133;28;20213;-81
2022/03/10 07:45:29;;;;;;;5.53;3.93;;;;;;;8.50;29.14;95215.47;5114046;28;20169;-81
2022/03/10 07:47:55;;;;;;;6.37;3.13;;;;;;;8.15;29.55;95248.59;5114387;28;20652;-81
2022/03/10 07:50:23;;;;;;;5.57;3.27;;;;;;;7.84;31.14;95245.44;5113838;28;20196;-81
2022/03/10 07:52:48;;;;;;;4.67;3.80;;;;;;;7.19;31.34;95202.50;5104175;28;20178;-81
2022/03/10 07:55:14;;;;;;;7.83;3.57;;;;;;;6.63;32.80;95210.94;5103356;28;20181;-82
2022/03/10 07:57:41;;;;;;;5.20;3.57;;;;;;;6.42;33.14;95256.06;5095980;28;20767;-81
2022/03/10 08:00:07;;;;;;;6.30;3.70;;;;;;;5.79;34.25;95254.50;5102930;28;20567;-81
2022/03/10 08:02:33;;;;;;;4.87;3.40;;;;;;;5.81;35.60;95236.03;5105821;28;20180;-81
2022/03/10 08:04:59;;;;;;;5.50;3.20;;;;;;;5.88;34.38;95224.75;5105428;28;20178;-82
2022/03/10 08:07:24;;;;;;;4.23;3.40;;;;;;;6.00;34.67;95204.25;5104109;28;20177;-82
2022/03/10 08:09:49;;;;;;;4.13;2.90;;;;;;;6.60;31.98;95256.56;5100651;28;20202;-83
2022/03/10 08:12:15;;;;;;;5.90;3.13;;;;;;;6.22;32.42;95260.16;5102721;28;20178;-81
2022/03/10 08:14:41;;;;;;;5.43;3.07;;;;;;;6.13;34.99;95254.16;5106031;28;20201;-84
2022/03/10 08:17:06;;;;;;;3.50;2.80;;;;;;;6.41;33.57;95236.13;5093538;28;20173;-81
2022/03/10 08:19:32;;;;;;;4.43;2.57;;;;;;;6.23;34.23;95194.59;5105772;28;20711;-81
2022/03/10 08:21:58;;;;;;;3.47;2.77;;;;;;;6.44;33.43;95241.03;5108288;28;20185;-82
2022/03/10 08:24:25;;;;;;;5.20;3.10;;;;;;;6.71;34.17;95257.97;5091844;28;20264;-82
2022/03/10 08:26:51;;;;;;;4.47;3.10;;;;;;;6.68;33.47;95261.72;5095545;28;20229;-83
2022/03/10 08:29:16;;;;;;;5.20;2.90;;;;;;;6.03;32.50;95254.38;5100138;28;20177;-82
2022/03/10 08:31:42;;;;;;;5.50;3.47;;;;;;;5.43;34.00;95216.81;5105010;27;20204;-82
2022/03/10 08:34:08;;;;;;;5.10;3.07;;;;;;;4.50;34.87;95217.38;5101610;28;20600;-81
2022/03/10 08:36:34;;;;;;;6.00;3.03;;;;;;;3.85;35.72;95237.38;5102172;28;20179;-82
2022/03/10 08:38:59;;;;;;;6.93;3.23;;;;;;;3.56;37.34;95245.59;5097538;28;20673;-83
2022/03/10 08:41:25;;;;;;;3.70;2.50;;;;;;;3.17;37.01;95210.69;5105810;28;20173;-83
2022/03/10 08:43:50;;;;;;;3.70;2.57;;;;;;;2.97;38.71;95262.09;5101126;28;20173;-82
2022/03/10 08:46:16;;;;;;;5.20;3.33;;;;;;;2.74;41.53;95246.22;5101715;28;20174;-81
2022/03/10 08:48:44;;;;;;;5.10;2.73;;;;;;;2.48;38.80;95217.63;5102566;28;20177;-81
2022/03/10 08:51:09;;;;;;;5.00;2.83;;;;;;;2.16;40.00;95187.03;5100521;28;20217;-82
2022/03/10 08:53:36;;;;;;;3.13;2.37;;;;;;;2.43;39.41;95238.03;5102280;28;20216;-82
2022/03/10 08:56:02;;;;;;;3.70;2.47;;;;;;;2.32;39.95;95251.28;5105349;28;20235;-81
2022/03/10 08:58:27;;;;;;;3.20;2.20;;;;;;;2.07;39.70;95220.88;5099907;28;20193;-82
2022/03/10 09:00:54;;;;;;;3.10;2.23;;;;;;;2.17;40.55;95219.00;5102978;28;20654;-83
2022/03/10 09:03:20;;;;;;;4.57;2.30;;;;;;;2.67;40.39;95276.38;5100830;28;20166;-81
2022/03/10 09:05:46;;;;;;;4.13;2.40;;;;;;;2.53;38.93;95250.94;5105673;28;20207;-82
2022/03/10 09:08:11;;;;;;;3.73;2.10;;;;;;;1.95;38.94;95196.94;5095315;28;20216;-82
2022/03/10 09:10:37;;;;;;;3.30;2.10;;;;;;;2.07;38.07;95220.88;5101123;28;20193;-80
2022/03/10 09:13:04;;;;;;;2.93;2.23;;;;;;;1.92;38.63;95209.38;5101767;28;20222;-82
2022/03/10 09:15:30;;;;;;;5.27;2.50;;;;;;;2.06;38.42;95260.78;5102659;28;20692;-84
2022/03/10 09:17:56;;;;;;;2.93;2.17;;;;;;;1.59;38.21;95198.72;5105195;28;20171;-82
2022/03/10 09:20:22;;;;;;;3.00;2.57;;;;;;;1.50;39.10;95186.63;5102573;28;20252;-81
2022/03/10 09:22:49;;;;;;;3.33;2.27;;;;;;;2.06;39.53;95273.78;5100372;28;20169;-84
2022/03/10 09:25:15;;;;;;;2.20;2.00;;;;;;;1.93;37.72;95224.81;5100173;28;20252;-84
2022/03/10 09:27:41;;;;;;;3.00;2.33;;;;;;;2.42;40.61;95259.00;5098540;28;20303;-84
2022/03/10 09:30:09;;;;;;;4.23;2.20;;;;;;;2.46;36.96;95206.56;5100846;28;20207;-82
2022/03/10 09:32:40;;;;;;;3.83;1.93;;;;;;;3.11;35.06;95260.72;5102522;28;20572;-83
2022/03/10 09:35:09;;;;;;;3.03;2.30;;;;;;;3.04;35.25;95195.50;5105489;28;20211;-82
2022/03/10 09:37:35;;;;;;;2.93;2.27;;;;;;;3.55;36.23;95250.94;5106539;28;20594;-82
2022/03/10 09:40:01;;;;;;;4.63;2.07;;;;;;;3.94;35.48;95259.84;5105597;28;20166;-81
2022/03/10 09:42:32;;;;;;;3.60;2.40;;;;;;;3.87;33.96;95240.66;5097650;28;20239;-84
2022/03/10 09:44:59;;;;;;;2.30;1.80;;;;;;;3.68;33.77;95257.34;5102494;28;20177;-81
2022/03/10 09:47:25;;;;;;;2.23;1.80;;;;;;;3.24;33.19;95232.47;5102086;28;20184;-81
2022/03/10 09:49:52;;;;;;;2.23;1.80;;;;;;;3.01;34.71;95180.22;5100074;28;20709;-82
2022/03/10 09:52:18;;;;;;;2.17;1.97;;;;;;;2.91;34.08;95252.31;5101968;28;20219;-81
2022/03/10 09:54:44;;;;;;;3.23;2.40;;;;;;;3.04;35.18;95243.13;5099481;28;20645;-82
2022/03/10 09:57:10;;;;;;;3.17;2.30;;;;;;;3.53;38.97;95251.13;5104472;28;20466;-83
2022/03/10 09:59:58;;;;;;;2.50;1.77;;;;;;;3.85;36.20;95254.78;5105246;28;20177;-81
2022/03/10 10:02:24;;;;;;;4.23;2.10;;;;;;;3.87;36.94;95239.81;5107608;27;20184;-81
2022/03/10 10:04:51;;;;;;;3.73;1.80;;;;;;;3.93;33.82;95252.19;5107306;28;20251;-81
2022/03/10 10:07:21;;;;;;;3.80;2.27;;;;;;;3.96;34.09;95268.34;5106035;28;20163;-81
2022/03/10 10:09:55;;;;;;;4.03;1.97;;;;;;;3.87;33.87;95245.84;5106824;28;20205;-81
2022/03/10 10:12:29;;;;;;;2.93;2.47;;;;;;;3.75;33.95;95270.53;5104786;28;20199;-81
2022/03/10 10:14:56;;;;;;;2.17;1.80;;;;;;;3.01;34.79;95253.03;5104371;28;20182;-80
2022/03/10 10:17:30;;;;;;;2.47;2.23;;;;;;;2.72;34.19;95223.94;5102112;28;20601;-83
2022/03/10 10:19:57;;;;;;;1.73;1.50;;;;;;;2.83;35.13;95244.47;5102964;28;20170;-82
2022/03/10 10:22:24;;;;;;;3.43;2.00;;;;;;;2.71;35.82;95272.50;5101132;28;20183;-80
2022/03/10 10:24:57;;;;;;;2.00;1.83;;;;;;;2.68;36.15;95272.81;5107805;28;20174;-81
2022/03/10 10:27:26;;;;;;;2.50;2.10;;;;;;;2.44;37.32;95212.88;5101231;28;20244;-80
2022/03/10 10:29:54;;;;;;;4.93;2.47;;;;;;;2.36;36.07;95229.22;5105180;28;20554;-84
2022/03/10 10:32:34;;;;;;;4.03;2.00;;;;;;;2.54;36.81;95271.56;5103667;28;20993;-81
2022/03/10 10:35:08;;;;;;;4.47;2.13;;;;;;;2.70;37.23;95281.25;5103009;28;20177;-81
2022/03/10 10:37:36;;;;;;;2.77;2.30;;;;;;;2.53;36.88;95298.50;5103227;28;20182;-81
2022/03/10 10:40:04;;;;;;;2.47;2.23;;;;;;;2.19;37.12;95261.22;5104436;28;20564;-83
2022/03/10 10:42:31;;;;;;;3.47;2.20;;;;;;;2.14;37.61;95274.66;5104628;28;20176;-83
2022/03/10 10:45:01;;;;;;;2.57;1.90;;;;;;;2.57;38.57;95267.84;5104338;28;20183;-84
2022/03/10 10:47:30;;;;;;;2.83;2.17;;;;;;;2.86;37.50;95264.94;5109635;28;20607;-83
2022/03/10 10:50:04;;;;;;;3.23;2.10;;;;;;;2.38;36.56;95232.47;5102503;28;20204;-83
2022/03/10 10:52:37;;;;;;;4.27;2.30;;;;;;;2.72;36.74;95260.31;5099943;28;20261;-84
2022/03/10 10:55:07;;;;;;;3.23;2.53;;;;;;;3.03;38.99;95258.88;5108428;27;20180;-85
2022/03/10 10:57:35;;;;;;;2.57;1.80;;;;;;;3.14;39.44;95248.19;5103891;28;20261;-80
2022/03/10 11:00:18;;;;;;;4.43;2.50;;;;;;;3.23;37.47;95236.88;5105128;28;20179;-82
2022/03/10 11:02:44;;;;;;;4.43;2.63;;;;;;;3.22;37.64;95250.03;5103073;28;20574;-84
2022/03/10 11:05:12;;;;;;;4.47;2.40;;;;;;;2.72;37.06;95257.72;5104188;28;20169;-84
2022/03/10 11:07:42;;;;;;;3.13;1.80;;;;;;;1.76;37.28;95257.56;5103516;28;20180;-83
2022/03/10 11:10:09;;;;;;;3.30;2.37;;;;;;;1.90;37.68;95256.28;5105066;28;20685;-84
2022/03/10 11:12:39;;;;;;;3.93;2.37;;;;;;;1.97;39.01;95239.13;5093720;28;20268;-84
2022/03/10 11:15:08;;;;;;;8.10;2.30;;;;;;;2.02;37.79;95251.66;5101557;28;20170;-83
2022/03/10 11:17:34;;;;;;;3.60;1.93;;;;;;;1.71;38.51;95205.31;5101371;28;20181;-84
2022/03/10 11:20:10;;;;;;;3.23;2.47;;;;;;;1.97;39.18;95239.13;5099947;28;20174;-84
2022/03/10 11:22:55;;;;;;;4.60;2.70;;;;;;;2.26;38.67;95262.25;5096711;28;20188;-84
2022/03/10 11:25:37;;;;;;;2.53;2.33;;;;;;;2.52;40.07;95265.69;5103172;28;20177;-84
2022/03/10 11:28:10;;;;;;;3.90;2.47;;;;;;;2.50;38.38;95231.28;5104068;28;20208;-84
2022/03/10 11:30:36;;;;;;;3.00;2.50;;;;;;;2.76;38.55;95248.66;5093893;28;20782;-84
2022/03/10 11:33:09;;;;;;;3.60;2.60;;;;;;;2.66;38.67;95196.78;5093955;28;21502;-84
2022/03/10 11:35:39;;;;;;;2.30;2.03;;;;;;;3.14;38.74;95274.22;5090543;28;20178;-84
2022/03/10 11:38:04;;;;;;;2.33;2.13;;;;;;;2.72;38.23;95214.34;5107181;28;20177;-84
2022/03/10 11:40:42;;;;;;;2.57;2.20;;;;;;;3.10;38.00;95264.28;5106351;28;20173;-84
2022/03/10 11:43:09;;;;;;;3.87;2.70;;;;;;;3.00;39.51;95243.59;5090263;28;20192;-84
2022/03/10 11:45:34;;;;;;;8.07;2.60;;;;;;;3.21;39.67;95253.59;5103577;28;20177;-84
2022/03/10 11:48:25;;;;;;;3.20;2.10;;;;;;;3.20;38.58;95278.78;5097171;28;20192;-83
2022/03/10 11:50:51;;;;;;;3.37;2.20;;;;;;;2.95;41.20;95290.03;5092850;28;20241;-84
2022/03/10 11:53:17;;;;;;;4.57;2.40;;;;;;;2.85;41.32;95290.16;5103700;28;20281;-83
2022/03/10 11:55:43;;;;;;;3.37;2.40;;;;;;;2.67;42.10;95294.56;5105154;28;20176;-84
2022/03/10 11:58:11;;;;;;;2.30;2.10;;;;;;;2.55;39.80;95278.41;5107050;28;20653;-84
2022/03/10 12:00:39;;;;;;;2.00;1.80;;;;;;;2.52;38.18;95281.28;5105137;28;20180;-82
2022/03/10 12:03:05;;;;;;;2.30;2.10;;;;;;;2.14;38.42;95247.88;5101619;28;20169;-87